עמוד ראשי
METAR-TAF:

METAR-TAF

שדות תעופה :

Shishmaref, אלסקה, ארצות הברית

קו רוחב: 66-16N, קו אורך: 166-03W, גובה: 2מטר

תצפית מזג אוויר נוכחית

הדו"ח נערך לפני 42דקות, בשעה 10:56 UTC
רוח 8קשר מכיוון מזרח/צפון-מזרח
טמפרטורת 12 צלסיוס
לחות 82%
לחץ 1008 hPa
ראות: 16.1קילומטר
עננים פזורים בגובה 9500רגל
עננים בינוניים בגובה 12000רגל

METAR: PASH 121056Z AUTO 07008KT 10SM SCT095 BKN120 12/09 A2977 RMK AO2 SLP083 T01170094

זמן: 03:38 (11:38 UTC)


TAF: חסר

תצפיות ותחזיות מזג אוויר לגבי יותר מ- 4,000 שדות תעופה ברחבי העולם. דוחות METAR ו- TAF.

התחנות הזמינות מסומנות בנקודות צהובות ואדומות על גבי המפה.

העבר את העכבר לנקודה הצבעונית על מנת לראות את שם התחנה.

לאחר מכן, לחץ כדי לראות את תוכן ואת תחזיות מזג האוויר.

כדי לשנות את המפה: לחץ על הכפתורים הירוקים עם הפלוס השחור כדי להתקרב; על הכפתור הירוק עם המקף כדי להתרחק; או בחיצים הירוקים למפות סמוכות.


METAR-TAF: